createdAt,value
2022-10-17T00:06:36.887Z,101848.44
2022-10-17T00:21:38.776Z,101850.72
2022-10-17T00:36:40.687Z,101853.38
2022-10-17T00:51:49.496Z,101866.53
2022-10-17T01:06:51.531Z,101879.72
2022-10-17T01:22:02.279Z,101894.59
2022-10-17T01:37:17.582Z,101905.53
2022-10-17T01:52:25.144Z,101910.19
2022-10-17T02:07:27.269Z,101924.59
2022-10-17T02:23:03.651Z,101913.19
2022-10-17T02:38:08.287Z,101906.88
2022-10-17T02:53:15.841Z,101896.63
2022-10-17T03:08:18.223Z,101910.41
2022-10-17T03:23:20.044Z,101913.34
2022-10-17T03:38:21.860Z,101935.66
2022-10-17T03:53:23.698Z,101938.78
2022-10-17T04:08:26.196Z,101931.09
2022-10-17T04:23:28.016Z,101934.94
2022-10-17T04:38:30.467Z,101952.47
2022-10-17T04:53:34.700Z,101969.03
2022-10-17T05:08:36.955Z,101991.97
2022-10-17T05:23:38.874Z,101990.78
2022-10-17T05:38:40.746Z,102002.06
2022-10-17T05:53:43.062Z,102002.31
2022-10-17T06:08:45.738Z,102031.25
2022-10-17T06:23:50.088Z,102038.66
2022-10-17T06:38:52.128Z,102038.09
2022-10-17T06:53:55.414Z,102050.94
2022-10-17T07:08:57.510Z,102063.84
2022-10-17T07:23:59.339Z,102061.97
2022-10-17T07:39:01.349Z,102058.06
2022-10-17T07:54:06.227Z,102067.63
2022-10-17T08:09:08.388Z,102072.22
2022-10-17T08:24:10.224Z,102064.19
2022-10-17T08:39:12.070Z,102060.31
2022-10-17T08:54:20.200Z,102067.09
2022-10-17T09:09:42.429Z,102055.38
2022-10-17T09:24:56.334Z,102055.06
2022-10-17T09:39:58.458Z,102036.88
2022-10-17T09:55:41.283Z,102027.50
2022-10-17T10:10:43.609Z,102018.06
2022-10-17T10:25:58.213Z,101985.06
2022-10-17T10:41:05.155Z,101982.38
2022-10-17T10:56:32.183Z,101984.28
2022-10-17T11:11:45.970Z,101984.72
2022-10-17T11:27:19.108Z,101986.97
2022-10-17T11:42:24.978Z,102003.47
2022-10-17T11:57:42.335Z,101989.56
2022-10-17T12:12:50.229Z,101974.75
2022-10-17T12:28:02.741Z,101984.72
2022-10-17T12:43:16.623Z,101981.91
2022-10-17T12:58:18.503Z,101989.41
2022-10-17T13:13:43.689Z,102006.66
2022-10-17T13:28:46.054Z,101984.94
2022-10-17T13:43:48.385Z,101987.44
2022-10-17T13:58:57.584Z,101976.41
2022-10-17T14:14:01.116Z,101977.81
2022-10-17T14:29:25.736Z,101966.16
2022-10-17T14:44:35.886Z,101941.81
2022-10-17T14:59:53.411Z,101953.31
2022-10-17T15:14:56.860Z,101983.22
2022-10-17T15:29:58.804Z,102012.19
2022-10-17T15:45:00.765Z,102029.25
2022-10-17T16:00:04.078Z,102018.72
2022-10-17T16:15:06.924Z,102014.44
2022-10-17T16:30:08.962Z,102020.13
2022-10-17T16:45:19.158Z,102015.63
2022-10-17T17:00:24.098Z,102023.41
2022-10-17T17:15:25.992Z,102009.44
2022-10-17T17:30:28.420Z,101988.97
2022-10-17T17:45:31.918Z,102009.78
2022-10-17T18:00:35.087Z,102010.47
2022-10-17T18:15:38.707Z,102008.00
2022-10-17T18:30:40.581Z,102022.19
2022-10-17T18:45:42.391Z,102027.41
2022-10-17T19:00:45.395Z,102025.19
2022-10-17T19:15:47.345Z,102034.72
2022-10-17T19:30:52.264Z,102030.34
2022-10-17T19:46:01.500Z,102035.53
2022-10-17T20:01:05.853Z,102030.13
2022-10-17T20:16:11.606Z,102034.94
2022-10-17T20:31:14.904Z,102022.16
2022-10-17T20:46:35.152Z,102023.38
2022-10-17T21:01:38.291Z,102006.41
2022-10-17T21:16:41.539Z,102006.50
2022-10-17T21:31:45.147Z,102001.03
2022-10-17T21:46:47.655Z,101984.94
2022-10-17T22:01:49.574Z,101987.28
2022-10-17T22:16:51.780Z,101991.56
2022-10-17T22:31:53.597Z,101972.91
2022-10-17T22:46:55.410Z,101970.56
2022-10-17T23:01:57.299Z,101984.16
2022-10-17T23:16:59.354Z,101983.69
2022-10-17T23:32:01.867Z,101981.88
2022-10-17T23:47:03.711Z,101985.56
